sensor_id;sensor_type;location;lat;lon;timestamp;P1;durP1;ratioP1;P2;durP2;ratioP2
70075;SDS011;63241;51.056;3.698;2023-03-01T02:18:52;19.05;;;11.68;;
70075;SDS011;63241;51.056;3.698;2023-03-01T06:20:35;23.18;;;13.68;;
70075;SDS011;63241;51.056;3.698;2023-03-01T06:23:03;22.90;;;14.50;;
70075;SDS011;63241;51.056;3.698;2023-03-01T06:25:30;25.23;;;14.40;;
70075;SDS011;63241;51.056;3.698;2023-03-01T06:27:59;22.87;;;14.20;;
70075;SDS011;63241;51.056;3.698;2023-03-01T06:36:58;22.82;;;13.93;;
70075;SDS011;63241;51.056;3.698;2023-03-01T06:39:28;21.42;;;13.40;;
70075;SDS011;63241;51.056;3.698;2023-03-01T06:41:55;28.25;;;13.62;;
70075;SDS011;63241;51.056;3.698;2023-03-01T06:51:00;21.85;;;12.85;;
70075;SDS011;63241;51.056;3.698;2023-03-01T06:53:28;24.37;;;13.50;;
70075;SDS011;63241;51.056;3.698;2023-03-01T06:55:57;19.75;;;13.13;;
70075;SDS011;63241;51.056;3.698;2023-03-01T07:07:46;24.30;;;14.28;;
70075;SDS011;63241;51.056;3.698;2023-03-01T07:10:13;21.82;;;13.62;;
70075;SDS011;63241;51.056;3.698;2023-03-01T07:12:41;21.90;;;13.55;;
70075;SDS011;63241;51.056;3.698;2023-03-01T07:15:09;22.37;;;13.62;;
70075;SDS011;63241;51.056;3.698;2023-03-01T07:17:37;22.00;;;13.60;;
70075;SDS011;63241;51.056;3.698;2023-03-01T07:20:05;19.98;;;12.43;;
70075;SDS011;63241;51.056;3.698;2023-03-01T07:22:33;21.62;;;12.60;;
70075;SDS011;63241;51.056;3.698;2023-03-01T07:25:01;16.30;;;11.65;;
70075;SDS011;63241;51.056;3.698;2023-03-01T07:27:29;21.07;;;13.08;;
70075;SDS011;63241;51.056;3.698;2023-03-01T07:29:56;20.57;;;11.70;;
70075;SDS011;63241;51.056;3.698;2023-03-01T07:32:24;23.83;;;13.22;;
70075;SDS011;63241;51.056;3.698;2023-03-01T07:34:52;18.60;;;11.25;;
70075;SDS011;63241;51.056;3.698;2023-03-01T07:37:20;18.57;;;11.38;;
70075;SDS011;63241;51.056;3.698;2023-03-01T07:39:47;23.35;;;11.48;;
70075;SDS011;63241;51.056;3.698;2023-03-01T07:42:15;20.62;;;11.12;;
70075;SDS011;63241;51.056;3.698;2023-03-01T07:44:42;20.50;;;11.05;;
70075;SDS011;63241;51.056;3.698;2023-03-01T07:47:10;13.62;;;9.85;;
70075;SDS011;63241;51.056;3.698;2023-03-01T07:49:38;23.38;;;10.50;;
70075;SDS011;63241;51.056;3.698;2023-03-01T07:52:06;17.70;;;10.05;;
70075;SDS011;63241;51.056;3.698;2023-03-01T07:54:35;16.50;;;9.75;;
70075;SDS011;63241;51.056;3.698;2023-03-01T07:57:03;19.07;;;9.83;;
70075;SDS011;63241;51.056;3.698;2023-03-01T07:59:31;18.98;;;10.10;;
70075;SDS011;63241;51.056;3.698;2023-03-01T08:01:59;28.30;;;10.85;;
70075;SDS011;63241;51.056;3.698;2023-03-01T08:04:27;18.73;;;10.98;;
70075;SDS011;63241;51.056;3.698;2023-03-01T08:06:55;19.67;;;10.13;;
70075;SDS011;63241;51.056;3.698;2023-03-01T08:09:22;19.80;;;9.25;;
70075;SDS011;63241;51.056;3.698;2023-03-01T08:11:50;14.43;;;8.85;;
70075;SDS011;63241;51.056;3.698;2023-03-01T08:14:18;16.35;;;7.97;;
70075;SDS011;63241;51.056;3.698;2023-03-01T08:16:48;13.62;;;7.55;;
70075;SDS011;63241;51.056;3.698;2023-03-01T08:19:15;12.68;;;7.85;;
70075;SDS011;63241;51.056;3.698;2023-03-01T08:21:43;13.15;;;7.70;;
70075;SDS011;63241;51.056;3.698;2023-03-01T08:24:11;18.65;;;8.10;;
70075;SDS011;63241;51.056;3.698;2023-03-01T08:26:39;12.70;;;7.33;;
70075;SDS011;63241;51.056;3.698;2023-03-01T08:29:07;8.13;;;6.62;;
70075;SDS011;63241;51.056;3.698;2023-03-01T08:31:35;12.73;;;7.35;;
70075;SDS011;63241;51.056;3.698;2023-03-01T08:34:06;11.78;;;7.25;;
70075;SDS011;63241;51.056;3.698;2023-03-01T08:36:36;13.90;;;7.42;;
70075;SDS011;63241;51.056;3.698;2023-03-01T08:39:06;15.65;;;9.20;;
70075;SDS011;63241;51.056;3.698;2023-03-01T08:41:35;12.40;;;7.25;;
70075;SDS011;63241;51.056;3.698;2023-03-01T08:44:03;12.07;;;7.17;;
70075;SDS011;63241;51.056;3.698;2023-03-01T08:46:32;9.45;;;6.92;;
70075;SDS011;63241;51.056;3.698;2023-03-01T08:49:05;12.15;;;7.65;;
70075;SDS011;63241;51.056;3.698;2023-03-01T08:51:34;10.82;;;7.33;;
70075;SDS011;63241;51.056;3.698;2023-03-01T08:54:38;10.23;;;7.08;;
70075;SDS011;63241;51.056;3.698;2023-03-01T08:56:41;11.12;;;6.97;;
70075;SDS011;63241;51.056;3.698;2023-03-01T08:59:15;9.88;;;7.72;;
70075;SDS011;63241;51.056;3.698;2023-03-01T09:01:39;11.35;;;6.85;;
70075;SDS011;63241;51.056;3.698;2023-03-01T09:04:09;9.83;;;6.90;;
70075;SDS011;63241;51.056;3.698;2023-03-01T09:06:38;8.45;;;6.12;;
70075;SDS011;63241;51.056;3.698;2023-03-01T09:09:06;11.12;;;7.10;;
70075;SDS011;63241;51.056;3.698;2023-03-01T09:11:35;10.68;;;6.87;;
70075;SDS011;63241;51.056;3.698;2023-03-01T09:14:05;14.95;;;7.35;;
70075;SDS011;63241;51.056;3.698;2023-03-01T09:16:33;9.80;;;7.17;;
70075;SDS011;63241;51.056;3.698;2023-03-01T09:19:02;8.78;;;6.62;;
70075;SDS011;63241;51.056;3.698;2023-03-01T09:21:30;12.10;;;6.83;;
70075;SDS011;63241;51.056;3.698;2023-03-01T09:23:58;12.45;;;7.25;;
70075;SDS011;63241;51.056;3.698;2023-03-01T09:26:26;8.83;;;7.17;;
70075;SDS011;63241;51.056;3.698;2023-03-01T09:28:54;13.32;;;7.03;;
70075;SDS011;63241;51.056;3.698;2023-03-01T09:31:23;10.43;;;7.22;;
70075;SDS011;63241;51.056;3.698;2023-03-01T09:33:52;12.47;;;7.35;;
70075;SDS011;63241;51.056;3.698;2023-03-01T09:36:21;7.92;;;6.60;;
70075;SDS011;63241;51.056;3.698;2023-03-01T09:38:52;11.70;;;7.17;;
70075;SDS011;63241;51.056;3.698;2023-03-01T09:41:33;15.08;;;7.42;;
70075;SDS011;63241;51.056;3.698;2023-03-01T09:44:16;12.33;;;7.58;;
70075;SDS011;63241;51.056;3.698;2023-03-01T09:46:58;11.73;;;6.92;;
70075;SDS011;63241;51.056;3.698;2023-03-01T09:49:27;11.05;;;7.30;;
70075;SDS011;63241;51.056;3.698;2023-03-01T09:52:15;10.58;;;6.90;;
70075;SDS011;63241;51.056;3.698;2023-03-01T09:54:47;10.15;;;6.20;;
70075;SDS011;63241;51.056;3.698;2023-03-01T09:57:19;11.95;;;7.42;;
70075;SDS011;63241;51.056;3.698;2023-03-01T10:10:55;10.28;;;6.22;;
70075;SDS011;63241;51.056;3.698;2023-03-01T10:16:16;11.73;;;7.25;;
70075;SDS011;63241;51.056;3.698;2023-03-01T10:21:16;11.12;;;6.03;;
70075;SDS011;63241;51.056;3.698;2023-03-01T10:23:45;12.70;;;6.03;;
70075;SDS011;63241;51.056;3.698;2023-03-01T10:29:08;9.93;;;6.45;;
70075;SDS011;63241;51.056;3.698;2023-03-01T10:34:25;12.28;;;6.75;;
70075;SDS011;63241;51.056;3.698;2023-03-01T10:36:52;8.98;;;6.33;;
70075;SDS011;63241;51.056;3.698;2023-03-01T10:39:23;9.48;;;6.45;;
70075;SDS011;63241;51.056;3.698;2023-03-01T10:42:00;10.85;;;5.95;;
70075;SDS011;63241;51.056;3.698;2023-03-01T10:44:45;13.58;;;6.62;;
70075;SDS011;63241;51.056;3.698;2023-03-01T10:47:19;12.50;;;6.03;;
70075;SDS011;63241;51.056;3.698;2023-03-01T10:49:56;6.65;;;5.37;;
70075;SDS011;63241;51.056;3.698;2023-03-01T10:52:27;8.18;;;5.45;;
70075;SDS011;63241;51.056;3.698;2023-03-01T10:55:02;8.38;;;5.87;;
70075;SDS011;63241;51.056;3.698;2023-03-01T10:57:39;9.75;;;5.80;;
70075;SDS011;63241;51.056;3.698;2023-03-01T11:03:01;12.30;;;7.65;;
70075;SDS011;63241;51.056;3.698;2023-03-01T11:05:20;9.03;;;5.67;;
70075;SDS011;63241;51.056;3.698;2023-03-01T11:07:51;7.28;;;5.65;;
70075;SDS011;63241;51.056;3.698;2023-03-01T11:10:26;6.00;;;5.35;;
70075;SDS011;63241;51.056;3.698;2023-03-01T11:12:52;9.68;;;5.87;;
70075;SDS011;63241;51.056;3.698;2023-03-01T11:15:22;8.60;;;5.22;;
70075;SDS011;63241;51.056;3.698;2023-03-01T11:17:54;7.37;;;5.62;;
70075;SDS011;63241;51.056;3.698;2023-03-01T11:20:25;10.28;;;6.00;;
70075;SDS011;63241;51.056;3.698;2023-03-01T11:22:59;7.97;;;6.05;;
70075;SDS011;63241;51.056;3.698;2023-03-01T11:25:26;8.73;;;5.87;;
70075;SDS011;63241;51.056;3.698;2023-03-01T11:27:55;6.45;;;5.47;;
70075;SDS011;63241;51.056;3.698;2023-03-01T11:30:37;7.17;;;5.50;;
70075;SDS011;63241;51.056;3.698;2023-03-01T11:36:01;6.62;;;4.85;;
70075;SDS011;63241;51.056;3.698;2023-03-01T11:38:34;7.67;;;5.22;;
70075;SDS011;63241;51.056;3.698;2023-03-01T11:41:07;6.97;;;5.20;;
70075;SDS011;63241;51.056;3.698;2023-03-01T11:49:43;7.17;;;5.40;;
70075;SDS011;63241;51.056;3.698;2023-03-01T11:52:14;7.25;;;5.05;;
70075;SDS011;63241;51.056;3.698;2023-03-01T12:00:33;7.30;;;5.17;;
70075;SDS011;63241;51.056;3.698;2023-03-01T12:05:49;8.65;;;5.05;;
70075;SDS011;63241;51.056;3.698;2023-03-01T12:08:20;9.00;;;5.53;;
70075;SDS011;63241;51.056;3.698;2023-03-01T12:11:03;7.87;;;5.58;;
70075;SDS011;63241;51.056;3.698;2023-03-01T12:24:41;8.43;;;5.12;;
70075;SDS011;63241;51.056;3.698;2023-03-01T12:32:59;7.37;;;4.92;;
70075;SDS011;63241;51.056;3.698;2023-03-01T12:54:37;8.30;;;4.83;;
70075;SDS011;63241;51.056;3.698;2023-03-01T12:57:20;7.62;;;4.83;;
70075;SDS011;63241;51.056;3.698;2023-03-01T13:03:29;7.90;;;5.20;;
70075;SDS011;63241;51.056;3.698;2023-03-01T13:17:30;5.92;;;4.53;;
70075;SDS011;63241;51.056;3.698;2023-03-01T13:20:00;9.88;;;5.50;;
70075;SDS011;63241;51.056;3.698;2023-03-01T13:22:30;7.85;;;5.10;;
70075;SDS011;63241;51.056;3.698;2023-03-01T13:25:11;10.82;;;5.10;;
70075;SDS011;63241;51.056;3.698;2023-03-01T13:30:42;10.00;;;5.05;;
70075;SDS011;63241;51.056;3.698;2023-03-01T13:36:02;8.03;;;5.65;;
70075;SDS011;63241;51.056;3.698;2023-03-01T13:45:31;10.32;;;5.67;;
70075;SDS011;63241;51.056;3.698;2023-03-01T14:53:27;7.67;;;5.93;;
70075;SDS011;63241;51.056;3.698;2023-03-01T14:55:59;11.30;;;6.50;;
70075;SDS011;63241;51.056;3.698;2023-03-01T14:58:29;12.63;;;6.60;;
70075;SDS011;63241;51.056;3.698;2023-03-01T15:07:04;11.20;;;6.17;;
70075;SDS011;63241;51.056;3.698;2023-03-01T15:09:32;10.95;;;6.40;;
70075;SDS011;63241;51.056;3.698;2023-03-01T15:12:23;9.53;;;5.97;;
70075;SDS011;63241;51.056;3.698;2023-03-01T15:21:15;11.83;;;6.42;;
70075;SDS011;63241;51.056;3.698;2023-03-01T15:23:48;14.00;;;7.20;;
70075;SDS011;63241;51.056;3.698;2023-03-01T15:26:24;13.00;;;6.62;;
70075;SDS011;63241;51.056;3.698;2023-03-01T15:38:24;14.35;;;7.35;;
70075;SDS011;63241;51.056;3.698;2023-03-01T15:40:58;21.77;;;12.40;;
70075;SDS011;63241;51.056;3.698;2023-03-01T15:43:43;16.37;;;9.10;;
70075;SDS011;63241;51.056;3.698;2023-03-01T15:46:33;9.60;;;7.03;;
70075;SDS011;63241;51.056;3.698;2023-03-01T15:49:04;9.93;;;7.15;;
70075;SDS011;63241;51.056;3.698;2023-03-01T15:51:35;13.03;;;8.23;;
70075;SDS011;63241;51.056;3.698;2023-03-01T15:54:05;10.00;;;7.10;;
70075;SDS011;63241;51.056;3.698;2023-03-01T16:02:54;10.58;;;6.70;;
70075;SDS011;63241;51.056;3.698;2023-03-01T16:05:24;14.98;;;8.70;;
70075;SDS011;63241;51.056;3.698;2023-03-01T16:07:53;10.98;;;7.03;;
70075;SDS011;63241;51.056;3.698;2023-03-01T16:13:35;12.07;;;7.10;;
70075;SDS011;63241;51.056;3.698;2023-03-01T16:16:10;11.03;;;6.92;;
70075;SDS011;63241;51.056;3.698;2023-03-01T16:18:42;11.50;;;7.53;;
70075;SDS011;63241;51.056;3.698;2023-03-01T16:21:16;10.85;;;7.10;;
70075;SDS011;63241;51.056;3.698;2023-03-01T16:30:24;12.28;;;7.53;;
70075;SDS011;63241;51.056;3.698;2023-03-01T16:32:52;11.63;;;7.60;;
70075;SDS011;63241;51.056;3.698;2023-03-01T16:35:21;11.50;;;7.35;;
70075;SDS011;63241;51.056;3.698;2023-03-01T16:44:18;14.30;;;7.17;;
70075;SDS011;63241;51.056;3.698;2023-03-01T16:46:46;13.83;;;7.17;;
70075;SDS011;63241;51.056;3.698;2023-03-01T16:49:14;12.35;;;7.58;;
70075;SDS011;63241;51.056;3.698;2023-03-01T16:58:03;13.45;;;8.03;;
70075;SDS011;63241;51.056;3.698;2023-03-01T17:00:31;13.62;;;7.55;;
70075;SDS011;63241;51.056;3.698;2023-03-01T17:02:59;15.30;;;8.50;;
70075;SDS011;63241;51.056;3.698;2023-03-01T17:08:53;12.40;;;8.03;;
70075;SDS011;63241;51.056;3.698;2023-03-01T17:11:26;11.18;;;7.90;;
70075;SDS011;63241;51.056;3.698;2023-03-01T17:13:54;11.85;;;7.95;;
70075;SDS011;63241;51.056;3.698;2023-03-01T17:16:22;16.35;;;8.40;;
70075;SDS011;63241;51.056;3.698;2023-03-01T17:19:00;13.93;;;8.28;;
70075;SDS011;63241;51.056;3.698;2023-03-01T17:24:33;12.03;;;8.10;;
70075;SDS011;63241;51.056;3.698;2023-03-01T17:27:01;12.60;;;8.75;;
70075;SDS011;63241;51.056;3.698;2023-03-01T17:29:30;13.45;;;8.28;;
70075;SDS011;63241;51.056;3.698;2023-03-01T17:32:00;20.52;;;13.05;;
70075;SDS011;63241;51.056;3.698;2023-03-01T17:37:17;17.07;;;10.25;;
70075;SDS011;63241;51.056;3.698;2023-03-01T17:39:45;19.00;;;12.73;;
70075;SDS011;63241;51.056;3.698;2023-03-01T17:42:13;13.88;;;9.45;;
